sensor_id;sensor_type;location;lat;lon;timestamp;pressure;altitude;pressure_sealevel;temperature;humidity
54816;BME280;40715;55.752;37.884;2023-07-31T00:00:05;98262.16;;;33.63;27.55
54816;BME280;40715;55.752;37.884;2023-07-31T00:02:33;98262.16;;;33.63;27.44
54816;BME280;40715;55.752;37.884;2023-07-31T00:05:01;98260.69;;;33.60;27.29
54816;BME280;40715;55.752;37.884;2023-07-31T00:07:29;98265.34;;;33.60;27.37
54816;BME280;40715;55.752;37.884;2023-07-31T00:09:56;98265.13;;;33.61;27.28
54816;BME280;40715;55.752;37.884;2023-07-31T00:12:24;98263.22;;;33.62;27.35
54816;BME280;40715;55.752;37.884;2023-07-31T00:14:51;98260.47;;;33.62;27.30
54816;BME280;40715;55.752;37.884;2023-07-31T00:17:18;98256.09;;;33.61;27.42
54816;BME280;40715;55.752;37.884;2023-07-31T00:19:45;98256.09;;;33.61;27.44
54816;BME280;40715;55.752;37.884;2023-07-31T00:22:17;98252.50;;;33.60;27.36
54816;BME280;40715;55.752;37.884;2023-07-31T00:24:44;98247.03;;;33.60;27.31
54816;BME280;40715;55.752;37.884;2023-07-31T00:27:11;98248.31;;;33.58;27.61
54816;BME280;40715;55.752;37.884;2023-07-31T00:29:38;98251.69;;;33.60;27.35
54816;BME280;40715;55.752;37.884;2023-07-31T00:32:05;98256.28;;;33.59;27.22
54816;BME280;40715;55.752;37.884;2023-07-31T00:34:32;98247.91;;;33.61;27.30
54816;BME280;40715;55.752;37.884;2023-07-31T00:36:59;98254.41;;;33.60;27.08
54816;BME280;40715;55.752;37.884;2023-07-31T00:39:26;98253.56;;;33.59;27.00
54816;BME280;40715;55.752;37.884;2023-07-31T00:41:53;98256.28;;;33.59;27.26
54816;BME280;40715;55.752;37.884;2023-07-31T00:44:20;98252.13;;;33.57;27.38
54816;BME280;40715;55.752;37.884;2023-07-31T00:46:47;98252.72;;;33.59;27.20
54816;BME280;40715;55.752;37.884;2023-07-31T00:49:15;98258.41;;;33.57;27.48
54816;BME280;40715;55.752;37.884;2023-07-31T00:51:42;98251.91;;;33.58;27.24
54816;BME280;40715;55.752;37.884;2023-07-31T00:54:10;98256.50;;;33.58;27.14
54816;BME280;40715;55.752;37.884;2023-07-31T00:56:37;98252.72;;;33.59;27.44
54816;BME280;40715;55.752;37.884;2023-07-31T00:59:04;98252.72;;;33.59;27.45
54816;BME280;40715;55.752;37.884;2023-07-31T01:01:31;98253.56;;;33.59;27.36
54816;BME280;40715;55.752;37.884;2023-07-31T01:03:59;98256.50;;;33.58;27.39
54816;BME280;40715;55.752;37.884;2023-07-31T01:12:07;98250.00;;;33.59;26.93
54816;BME280;40715;55.752;37.884;2023-07-31T01:14:36;98249.16;;;33.58;27.37
54816;BME280;40715;55.752;37.884;2023-07-31T01:17:03;98255.06;;;33.55;27.17
54816;BME280;40715;55.752;37.884;2023-07-31T01:19:30;98252.13;;;33.57;27.32
54816;BME280;40715;55.752;37.884;2023-07-31T01:27:50;98260.09;;;33.58;27.24
54816;BME280;40715;55.752;37.884;2023-07-31T01:30:25;98263.25;;;33.55;27.15
54816;BME280;40715;55.752;37.884;2023-07-31T01:32:55;98255.47;;;33.52;27.13
54816;BME280;40715;55.752;37.884;2023-07-31T01:35:24;98251.69;;;33.53;27.29
54816;BME280;40715;55.752;37.884;2023-07-31T01:37:55;98253.81;;;33.51;27.13
54816;BME280;40715;55.752;37.884;2023-07-31T01:40:22;98258.63;;;33.55;27.23
54816;BME280;40715;55.752;37.884;2023-07-31T01:42:49;98250.88;;;33.52;27.15
54816;BME280;40715;55.752;37.884;2023-07-31T01:45:16;98252.34;;;33.55;27.00
54816;BME280;40715;55.752;37.884;2023-07-31T01:47:43;98254.00;;;33.56;27.19
54816;BME280;40715;55.752;37.884;2023-07-31T01:50:10;98254.84;;;33.57;26.96
54816;BME280;40715;55.752;37.884;2023-07-31T01:52:37;98264.09;;;33.55;27.04
54816;BME280;40715;55.752;37.884;2023-07-31T01:55:04;98266.00;;;33.55;27.19
54816;BME280;40715;55.752;37.884;2023-07-31T01:57:31;98259.44;;;33.56;27.08
54816;BME280;40715;55.752;37.884;2023-07-31T01:59:58;98263.03;;;33.57;27.30
54816;BME280;40715;55.752;37.884;2023-07-31T02:02:25;98260.31;;;33.57;27.20
54816;BME280;40715;55.752;37.884;2023-07-31T02:04:52;98261.13;;;33.57;27.31
54816;BME280;40715;55.752;37.884;2023-07-31T02:07:19;98260.31;;;33.57;27.19
54816;BME280;40715;55.752;37.884;2023-07-31T02:09:46;98263.66;;;33.59;26.93
54816;BME280;40715;55.752;37.884;2023-07-31T02:12:14;98261.97;;;33.58;27.32
54816;BME280;40715;55.752;37.884;2023-07-31T02:14:42;98261.75;;;33.59;27.22
54816;BME280;40715;55.752;37.884;2023-07-31T02:17:09;98265.13;;;33.61;26.97
54816;BME280;40715;55.752;37.884;2023-07-31T02:19:55;98266.38;;;33.65;26.93
54816;BME280;40715;55.752;37.884;2023-07-31T02:22:22;98266.16;;;33.60;27.30
54816;BME280;40715;55.752;37.884;2023-07-31T02:24:49;98262.59;;;33.60;27.04
54816;BME280;40715;55.752;37.884;2023-07-31T02:27:16;98269.53;;;33.62;26.94
54816;BME280;40715;55.752;37.884;2023-07-31T02:29:43;98261.56;;;33.61;26.98
54816;BME280;40715;55.752;37.884;2023-07-31T02:32:10;98267.84;;;33.61;26.94
54816;BME280;40715;55.752;37.884;2023-07-31T02:34:37;98267.41;;;33.64;27.03
54816;BME280;40715;55.752;37.884;2023-07-31T02:37:05;98266.38;;;33.65;27.18
54816;BME280;40715;55.752;37.884;2023-07-31T02:39:32;98269.91;;;33.66;26.96
54816;BME280;40715;55.752;37.884;2023-07-31T02:41:59;98261.13;;;33.64;27.17
54816;BME280;40715;55.752;37.884;2023-07-31T02:44:27;98264.25;;;33.67;26.86
54816;BME280;40715;55.752;37.884;2023-07-31T02:46:54;98265.94;;;33.68;26.64
54816;BME280;40715;55.752;37.884;2023-07-31T02:49:21;98251.00;;;33.71;26.74
54816;BME280;40715;55.752;37.884;2023-07-31T02:51:48;98262.75;;;33.71;26.80
54816;BME280;40715;55.752;37.884;2023-07-31T02:54:15;98265.03;;;33.75;26.87
54816;BME280;40715;55.752;37.884;2023-07-31T02:56:42;98265.94;;;33.75;26.95
54816;BME280;40715;55.752;37.884;2023-07-31T02:59:09;98268.44;;;33.77;27.01
54816;BME280;40715;55.752;37.884;2023-07-31T03:01:36;98268.44;;;33.77;27.20
54816;BME280;40715;55.752;37.884;2023-07-31T03:04:03;98264.03;;;33.76;26.98
54816;BME280;40715;55.752;37.884;2023-07-31T03:06:30;98261.72;;;33.79;27.05
54816;BME280;40715;55.752;37.884;2023-07-31T03:08:57;98265.47;;;33.85;27.04
54816;BME280;40715;55.752;37.884;2023-07-31T03:11:24;98260.84;;;33.85;27.10
54816;BME280;40715;55.752;37.884;2023-07-31T03:13:51;98268.13;;;33.92;27.24
54816;BME280;40715;55.752;37.884;2023-07-31T03:16:18;98261.41;;;33.94;27.11
54816;BME280;40715;55.752;37.884;2023-07-31T03:18:45;98269.38;;;33.96;27.07
54816;BME280;40715;55.752;37.884;2023-07-31T03:21:12;98263.69;;;33.97;27.12
54816;BME280;40715;55.752;37.884;2023-07-31T03:23:39;98267.22;;;34.04;26.99
54816;BME280;40715;55.752;37.884;2023-07-31T03:26:07;98251.06;;;34.03;27.23
54816;BME280;40715;55.752;37.884;2023-07-31T03:28:34;98258.81;;;34.06;28.17
54816;BME280;40715;55.752;37.884;2023-07-31T03:31:01;98259.03;;;34.04;28.88
54816;BME280;40715;55.752;37.884;2023-07-31T03:33:28;98263.22;;;34.07;29.12
54816;BME280;40715;55.752;37.884;2023-07-31T03:35:55;98272.03;;;34.09;29.42
54816;BME280;40715;55.752;37.884;2023-07-31T03:38:22;98273.72;;;34.10;29.30
54816;BME280;40715;55.752;37.884;2023-07-31T03:40:49;98279.81;;;34.12;29.05
54816;BME280;40715;55.752;37.884;2023-07-31T03:43:16;98281.06;;;34.16;28.71
54816;BME280;40715;55.752;37.884;2023-07-31T03:45:44;98266.75;;;34.14;28.42
54816;BME280;40715;55.752;37.884;2023-07-31T03:48:11;98264.84;;;34.15;28.13
54816;BME280;40715;55.752;37.884;2023-07-31T03:50:38;98267.16;;;34.18;27.76
54816;BME280;40715;55.752;37.884;2023-07-31T03:53:05;98263.19;;;34.14;27.26
54816;BME280;40715;55.752;37.884;2023-07-31T03:55:32;98265.94;;;34.14;26.94
54816;BME280;40715;55.752;37.884;2023-07-31T03:57:59;98260.47;;;34.14;27.44
54816;BME280;40715;55.752;37.884;2023-07-31T04:00:27;98265.47;;;34.17;27.31
54816;BME280;40715;55.752;37.884;2023-07-31T04:02:54;98264.22;;;34.19;27.68
54816;BME280;40715;55.752;37.884;2023-07-31T04:05:21;98266.50;;;34.22;27.54
54816;BME280;40715;55.752;37.884;2023-07-31T04:07:48;98269.84;;;34.24;27.94
54816;BME280;40715;55.752;37.884;2023-07-31T04:10:15;98265.81;;;34.27;28.15
54816;BME280;40715;55.752;37.884;2023-07-31T04:12:42;98267.09;;;34.31;28.04
54816;BME280;40715;55.752;37.884;2023-07-31T04:15:09;98262.44;;;34.32;27.97
54816;BME280;40715;55.752;37.884;2023-07-31T04:17:36;98262.03;;;34.35;28.34
54816;BME280;40715;55.752;37.884;2023-07-31T04:20:04;98276.53;;;34.35;28.52
54816;BME280;40715;55.752;37.884;2023-07-31T04:22:31;98275.03;;;34.39;28.33
54816;BME280;40715;55.752;37.884;2023-07-31T04:24:58;98277.53;;;34.41;28.51
54816;BME280;40715;55.752;37.884;2023-07-31T04:27:25;98280.88;;;34.43;28.70
54816;BME280;40715;55.752;37.884;2023-07-31T04:29:52;98286.34;;;34.43;28.78
54816;BME280;40715;55.752;37.884;2023-07-31T04:32:19;98284.84;;;34.47;28.77
54816;BME280;40715;55.752;37.884;2023-07-31T04:34:47;98280.84;;;34.50;28.88
54816;BME280;40715;55.752;37.884;2023-07-31T04:37:14;98278.69;;;34.52;28.83
54816;BME280;40715;55.752;37.884;2023-07-31T04:39:41;98283.97;;;34.53;29.01
54816;BME280;40715;55.752;37.884;2023-07-31T04:42:08;98277.19;;;34.56;29.06
54816;BME280;40715;55.752;37.884;2023-07-31T04:44:35;98277.84;;;34.58;29.08
54816;BME280;40715;55.752;37.884;2023-07-31T04:47:02;98281.16;;;34.60;29.07
54816;BME280;40715;55.752;37.884;2023-07-31T04:49:30;98281.81;;;34.62;29.36
54816;BME280;40715;55.752;37.884;2023-07-31T04:51:57;98283.25;;;34.65;29.22
54816;BME280;40715;55.752;37.884;2023-07-31T04:54:24;98288.72;;;34.65;29.37
54816;BME280;40715;55.752;37.884;2023-07-31T04:56:53;98285.53;;;34.68;29.33
54816;BME280;40715;55.752;37.884;2023-07-31T04:59:20;98298.34;;;34.67;29.23
54816;BME280;40715;55.752;37.884;2023-07-31T05:01:47;98287.59;;;34.72;29.26
54816;BME280;40715;55.752;37.884;2023-07-31T05:04:14;98294.34;;;34.70;29.29
54816;BME280;40715;55.752;37.884;2023-07-31T05:06:42;98293.06;;;34.72;29.19
54816;BME280;40715;55.752;37.884;2023-07-31T05:09:09;98282.13;;;34.72;29.26
54816;BME280;40715;55.752;37.884;2023-07-31T05:11:36;98293.25;;;34.78;29.32
54816;BME280;40715;55.752;37.884;2023-07-31T05:14:03;98297.44;;;34.80;29.37
54816;BME280;40715;55.752;37.884;2023-07-31T05:16:30;98300.81;;;34.82;29.25
54816;BME280;40715;55.752;37.884;2023-07-31T05:18:57;98291.31;;;34.85;29.02
54816;BME280;40715;55.752;37.884;2023-07-31T05:21:24;98297.16;;;34.88;28.71
54816;BME280;40715;55.752;37.884;2023-07-31T05:23:51;98298.84;;;34.89;28.92
54816;BME280;40715;55.752;37.884;2023-07-31T05:26:18;98295.88;;;34.91;28.83
54816;BME280;40715;55.752;37.884;2023-07-31T05:28:45;98298.16;;;34.94;28.78
54816;BME280;40715;55.752;37.884;2023-07-31T05:31:12;98292.69;;;34.94;28.69
54816;BME280;40715;55.752;37.884;2023-07-31T05:33:40;98297.94;;;34.96;28.46
54816;BME280;40715;55.752;37.884;2023-07-31T05:36:07;98288.44;;;34.98;28.38
54816;BME280;40715;55.752;37.884;2023-07-31T05:38:34;98298.34;;;34.99;28.63
54816;BME280;40715;55.752;37.884;2023-07-31T05:41:00;98292.25;;;34.97;28.84
54816;BME280;40715;55.752;37.884;2023-07-31T05:43:27;98301.31;;;34.98;28.89
54816;BME280;40715;55.752;37.884;2023-07-31T05:45:54;98302.97;;;34.99;28.81
54816;BME280;40715;55.752;37.884;2023-07-31T05:48:21;98302.72;;;35.00;28.85
54816;BME280;40715;55.752;37.884;2023-07-31T05:50:48;98313.47;;;35.02;28.85
54816;BME280;40715;55.752;37.884;2023-07-31T05:53:15;98307.78;;;35.03;29.04
54816;BME280;40715;55.752;37.884;2023-07-31T05:55:42;98310.88;;;35.07;28.92
54816;BME280;40715;55.752;37.884;2023-07-31T05:58:09;98311.94;;;35.06;29.20
54816;BME280;40715;55.752;37.884;2023-07-31T06:00:36;98308.56;;;35.11;29.32
54816;BME280;40715;55.752;37.884;2023-07-31T06:03:03;98308.91;;;35.14;29.07
54816;BME280;40715;55.752;37.884;2023-07-31T06:05:31;98312.88;;;35.18;29.23
54816;BME280;40715;55.752;37.884;2023-07-31T06:07:59;98312.28;;;35.16;29.08
54816;BME280;40715;55.752;37.884;2023-07-31T06:10:26;98301.09;;;35.18;29.30
54816;BME280;40715;55.752;37.884;2023-07-31T06:12:53;98315.38;;;35.20;29.01
54816;BME280;40715;55.752;37.884;2023-07-31T06:15:20;98304.91;;;35.17;29.07
54816;BME280;40715;55.752;37.884;2023-07-31T06:17:47;98312.06;;;35.18;29.27
54816;BME280;40715;55.752;37.884;2023-07-31T06:20:14;98314.34;;;35.21;29.01
54816;BME280;40715;55.752;37.884;2023-07-31T06:22:41;98313.50;;;35.20;29.10
54816;BME280;40715;55.752;37.884;2023-07-31T06:25:08;98319.00;;;35.20;28.97
54816;BME280;40715;55.752;37.884;2023-07-31T06:27:39;98315.38;;;35.20;28.93
54816;BME280;40715;55.752;37.884;2023-07-31T06:30:06;98312.66;;;35.20;29.08
54816;BME280;40715;55.752;37.884;2023-07-31T06:32:33;98313.50;;;35.20;29.03
54816;BME280;40715;55.752;37.884;2023-07-31T06:35:00;98309.69;;;35.21;28.98
54816;BME280;40715;55.752;37.884;2023-07-31T06:37:29;98310.09;;;35.25;28.90
54816;BME280;40715;55.752;37.884;2023-07-31T06:39:56;98310.91;;;35.25;29.01
54816;BME280;40715;55.752;37.884;2023-07-31T06:42:23;98317.84;;;35.28;28.50
54816;BME280;40715;55.752;37.884;2023-07-31T06:44:50;98320.38;;;35.30;28.13
54816;BME280;40715;55.752;37.884;2023-07-31T06:47:17;98319.91;;;35.33;27.97
54816;BME280;40715;55.752;37.884;2023-07-31T06:49:44;98326.03;;;35.35;28.12
54816;BME280;40715;55.752;37.884;2023-07-31T06:52:11;98324.72;;;35.37;27.99
54816;BME280;40715;55.752;37.884;2023-07-31T06:54:38;98327.44;;;35.37;27.94
54816;BME280;40715;55.752;37.884;2023-07-31T06:57:05;98327.44;;;35.37;27.61
54816;BME280;40715;55.752;37.884;2023-07-31T06:59:32;98322.59;;;35.39;27.68
54816;BME280;40715;55.752;37.884;2023-07-31T07:01:59;98322.13;;;35.42;27.68
54816;BME280;40715;55.752;37.884;2023-07-31T07:04:26;98332.28;;;35.42;27.68
54816;BME280;40715;55.752;37.884;2023-07-31T07:06:53;98329.06;;;35.45;27.65
54816;BME280;40715;55.752;37.884;2023-07-31T07:09:20;98318.13;;;35.45;27.78
54816;BME280;40715;55.752;37.884;2023-07-31T07:11:47;98325.88;;;35.48;28.02
54816;BME280;40715;55.752;37.884;2023-07-31T07:14:14;98326.09;;;35.47;27.80
54816;BME280;40715;55.752;37.884;2023-07-31T07:16:41;98326.47;;;35.50;27.67
54816;BME280;40715;55.752;37.884;2023-07-31T07:19:08;98323.91;;;35.55;27.39
54816;BME280;40715;55.752;37.884;2023-07-31T07:21:35;98325.50;;;35.63;27.11
54816;BME280;40715;55.752;37.884;2023-07-31T07:24:02;98332.19;;;35.67;27.10
54816;BME280;40715;55.752;37.884;2023-07-31T07:26:29;98328.53;;;35.73;26.90
54816;BME280;40715;55.752;37.884;2023-07-31T07:28:57;98337.59;;;35.74;27.08
54816;BME280;40715;55.752;37.884;2023-07-31T07:31:26;98332.72;;;35.76;27.01
54816;BME280;40715;55.752;37.884;2023-07-31T07:33:53;98328.66;;;35.78;26.93
54816;BME280;40715;55.752;37.884;2023-07-31T07:36:20;98327.19;;;35.83;26.75
54816;BME280;40715;55.752;37.884;2023-07-31T07:38:47;98332.44;;;35.84;26.46
54816;BME280;40715;55.752;37.884;2023-07-31T07:41:14;98333.06;;;35.86;26.62
54816;BME280;40715;55.752;37.884;2023-07-31T07:43:41;98321.63;;;35.89;26.59
54816;BME280;40715;55.752;37.884;2023-07-31T07:46:07;98324.97;;;35.91;26.53
54816;BME280;40715;55.752;37.884;2023-07-31T07:48:34;98337.00;;;35.90;26.43
54816;BME280;40715;55.752;37.884;2023-07-31T07:51:02;98327.69;;;35.91;26.30
54816;BME280;40715;55.752;37.884;2023-07-31T07:53:29;98327.84;;;35.97;26.26
54816;BME280;40715;55.752;37.884;2023-07-31T07:55:56;98336.31;;;35.95;26.17
54816;BME280;40715;55.752;37.884;2023-07-31T07:58:23;98342.38;;;35.97;26.27
54816;BME280;40715;55.752;37.884;2023-07-31T08:00:52;98331.88;;;35.94;26.28
54816;BME280;40715;55.752;37.884;2023-07-31T08:03:20;98343.00;;;35.99;25.95
54816;BME280;40715;55.752;37.884;2023-07-31T08:05:47;98336.22;;;36.02;25.95
54816;BME280;40715;55.752;37.884;2023-07-31T08:08:15;98338.34;;;36.00;26.03
54816;BME280;40715;55.752;37.884;2023-07-31T08:10:45;98337.28;;;36.01;25.75
54816;BME280;40715;55.752;37.884;2023-07-31T08:13:12;98337.28;;;36.01;26.03
54816;BME280;40715;55.752;37.884;2023-07-31T08:15:41;98338.34;;;36.00;25.63
54816;BME280;40715;55.752;37.884;2023-07-31T08:18:10;98346.09;;;36.03;25.46
54816;BME280;40715;55.752;37.884;2023-07-31T08:20:38;98342.06;;;36.05;25.68
54816;BME280;40715;55.752;37.884;2023-07-31T08:23:05;98349.47;;;36.05;25.30
54816;BME280;40715;55.752;37.884;2023-07-31T08:25:35;98342.16;;;35.99;25.21
54816;BME280;40715;55.752;37.884;2023-07-31T08:28:03;98339.81;;;36.02;25.39
54816;BME280;40715;55.752;37.884;2023-07-31T08:30:30;98348.63;;;36.04;25.24
54816;BME280;40715;55.752;37.884;2023-07-31T08:32:57;98347.19;;;36.02;25.09
54816;BME280;40715;55.752;37.884;2023-07-31T08:35:25;98352.69;;;36.02;24.99
54816;BME280;40715;55.752;37.884;2023-07-31T08:37:52;98341.72;;;36.02;25.03
54816;BME280;40715;55.752;37.884;2023-07-31T08:40:19;98348.03;;;36.02;25.18
54816;BME280;40715;55.752;37.884;2023-07-31T08:42:47;98348.50;;;35.99;25.05
54816;BME280;40715;55.752;37.884;2023-07-31T08:45:17;98351.00;;;36.01;24.98
54816;BME280;40715;55.752;37.884;2023-07-31T08:47:46;98356.25;;;36.02;24.94
54816;BME280;40715;55.752;37.884;2023-07-31T08:50:15;98343.00;;;35.99;24.83
54816;BME280;40715;55.752;37.884;2023-07-31T08:52:43;98350.75;;;36.02;24.83
54816;BME280;40715;55.752;37.884;2023-07-31T08:55:10;98341.72;;;36.02;24.69
54816;BME280;40715;55.752;37.884;2023-07-31T08:57:38;98350.59;;;35.97;24.72
54816;BME280;40715;55.752;37.884;2023-07-31T09:00:07;98343.00;;;35.99;24.91
54816;BME280;40715;55.752;37.884;2023-07-31T09:02:59;98371.28;;;36.11;24.87
54816;BME280;40715;55.752;37.884;2023-07-31T09:05:30;98348.41;;;36.06;24.75
54816;BME280;40715;55.752;37.884;2023-07-31T09:07:58;98348.19;;;36.07;24.59
54816;BME280;40715;55.752;37.884;2023-07-31T09:10:25;98354.47;;;36.08;24.46
54816;BME280;40715;55.752;37.884;2023-07-31T09:12:52;98339.47;;;36.10;24.45
54816;BME280;40715;55.752;37.884;2023-07-31T09:15:19;98350.56;;;36.16;24.33
54816;BME280;40715;55.752;37.884;2023-07-31T09:18:02;98350.13;;;36.19;24.17
54816;BME280;40715;55.752;37.884;2023-07-31T09:20:29;98357.03;;;36.21;24.10
54816;BME280;40715;55.752;37.884;2023-07-31T09:23:05;98344.53;;;36.25;24.35
54816;BME280;40715;55.752;37.884;2023-07-31T09:25:33;98351.88;;;36.32;24.30
54816;BME280;40715;55.752;37.884;2023-07-31T09:28:11;98347.47;;;36.31;23.91
54816;BME280;40715;55.752;37.884;2023-07-31T09:30:49;98344.63;;;36.37;24.20
54816;BME280;40715;55.752;37.884;2023-07-31T09:33:19;98348.91;;;36.33;24.07
54816;BME280;40715;55.752;37.884;2023-07-31T09:35:47;98347.00;;;36.34;23.81
54816;BME280;40715;55.752;37.884;2023-07-31T09:38:16;98353.38;;;36.27;23.83
54816;BME280;40715;55.752;37.884;2023-07-31T09:40:46;98344.25;;;36.15;24.01
54816;BME280;40715;55.752;37.884;2023-07-31T09:43:17;98354.19;;;35.98;24.31
54816;BME280;40715;55.752;37.884;2023-07-31T09:45:45;98350.78;;;35.84;24.19
54816;BME280;40715;55.752;37.884;2023-07-31T09:48:14;98346.25;;;35.71;24.60
54816;BME280;40715;55.752;37.884;2023-07-31T09:50:46;98343.81;;;35.63;24.67
54816;BME280;40715;55.752;37.884;2023-07-31T09:53:14;98351.06;;;35.57;24.78
54816;BME280;40715;55.752;37.884;2023-07-31T09:55:42;98348.38;;;35.50;24.42
54816;BME280;40715;55.752;37.884;2023-07-31T09:58:11;98353.94;;;35.43;24.46
54816;BME280;40715;55.752;37.884;2023-07-31T10:00:39;98363.03;;;35.37;24.44
54816;BME280;40715;55.752;37.884;2023-07-31T10:03:08;98344.78;;;35.31;24.14
54816;BME280;40715;55.752;37.884;2023-07-31T10:05:43;98352.78;;;35.33;23.98
54816;BME280;40715;55.752;37.884;2023-07-31T10:08:14;98355.97;;;35.30;24.09
54816;BME280;40715;55.752;37.884;2023-07-31T10:10:45;98353.88;;;35.25;24.16
54816;BME280;40715;55.752;37.884;2023-07-31T10:13:13;98347.19;;;35.21;24.19
54816;BME280;40715;55.752;37.884;2023-07-31T10:15:41;98343.00;;;35.18;24.37
54816;BME280;40715;55.752;37.884;2023-07-31T10:18:10;98349.09;;;35.20;24.25
54816;BME280;40715;55.752;37.884;2023-07-31T10:20:38;98344.03;;;35.17;24.32
54816;BME280;40715;55.752;37.884;2023-07-31T10:23:06;98347.00;;;35.16;24.33
54816;BME280;40715;55.752;37.884;2023-07-31T10:25:34;98341.75;;;35.14;24.37
54816;BME280;40715;55.752;37.884;2023-07-31T10:28:01;98344.50;;;35.14;24.46
54816;BME280;40715;55.752;37.884;2023-07-31T10:30:32;98342.44;;;35.09;24.23
54816;BME280;40715;55.752;37.884;2023-07-31T10:32:59;98340.75;;;35.08;24.21
54816;BME280;40715;55.752;37.884;2023-07-31T10:35:27;98352.56;;;35.09;24.17
54816;BME280;40715;55.752;37.884;2023-07-31T10:37:54;98345.41;;;35.08;24.25
54816;BME280;40715;55.752;37.884;2023-07-31T10:40:26;98342.91;;;35.06;24.46
54816;BME280;40715;55.752;37.884;2023-07-31T10:42:55;98347.53;;;35.06;24.55
54816;BME280;40715;55.752;37.884;2023-07-31T10:45:30;98338.47;;;35.05;24.43
54816;BME280;40715;55.752;37.884;2023-07-31T10:48:05;98340.38;;;35.05;24.67
54816;BME280;40715;55.752;37.884;2023-07-31T10:50:36;98340.63;;;35.03;25.05
54816;BME280;40715;55.752;37.884;2023-07-31T10:53:04;98335.97;;;35.04;24.65
54816;BME280;40715;55.752;37.884;2023-07-31T10:55:40;98340.84;;;35.02;24.75
54816;BME280;40715;55.752;37.884;2023-07-31T10:58:11;98346.31;;;35.02;24.07
54816;BME280;40715;55.752;37.884;2023-07-31T11:00:40;98335.78;;;34.99;23.84
54816;BME280;40715;55.752;37.884;2023-07-31T11:03:13;98339.84;;;34.96;23.70
54816;BME280;40715;55.752;37.884;2023-07-31T11:05:47;98332.69;;;34.95;23.56
54816;BME280;40715;55.752;37.884;2023-07-31T11:08:26;98339.63;;;34.98;23.25
54816;BME280;40715;55.752;37.884;2023-07-31T11:13:39;98333.13;;;34.92;23.35
54816;BME280;40715;55.752;37.884;2023-07-31T11:16:07;98335.25;;;34.90;23.11
54816;BME280;40715;55.752;37.884;2023-07-31T11:18:35;98334.66;;;34.88;22.99
54816;BME280;40715;55.752;37.884;2023-07-31T11:21:02;98341.16;;;34.87;23.13
54816;BME280;40715;55.752;37.884;2023-07-31T11:23:30;98340.56;;;34.85;23.02
54816;BME280;40715;55.752;37.884;2023-07-31T11:26:00;98331.50;;;34.84;23.09
54816;BME280;40715;55.752;37.884;2023-07-31T11:28:34;98331.50;;;34.84;23.27
54816;BME280;40715;55.752;37.884;2023-07-31T11:31:02;98334.00;;;34.86;23.30
54816;BME280;40715;55.752;37.884;2023-07-31T11:33:29;98330.69;;;34.84;23.26
54816;BME280;40715;55.752;37.884;2023-07-31T11:35:57;98338.66;;;34.85;23.12
54816;BME280;40715;55.752;37.884;2023-07-31T11:38:28;98333.88;;;34.81;23.17
54816;BME280;40715;55.752;37.884;2023-07-31T11:40:58;98324.78;;;34.80;22.99
54816;BME280;40715;55.752;37.884;2023-07-31T11:43:25;98329.63;;;34.78;22.89
54816;BME280;40715;55.752;37.884;2023-07-31T11:45:55;98335.34;;;34.77;22.94
54816;BME280;40715;55.752;37.884;2023-07-31T11:48:30;98333.19;;;34.79;22.89
54816;BME280;40715;55.752;37.884;2023-07-31T11:51:02;98337.22;;;34.76;22.68
54816;BME280;40715;55.752;37.884;2023-07-31T11:53:38;98332.38;;;34.78;22.89
54816;BME280;40715;55.752;37.884;2023-07-31T11:56:09;98334.69;;;34.74;22.69
54816;BME280;40715;55.752;37.884;2023-07-31T11:58:38;98338.06;;;34.77;22.52
54816;BME280;40715;55.752;37.884;2023-07-31T12:01:06;98333.66;;;34.75;22.80
54816;BME280;40715;55.752;37.884;2023-07-31T12:03:34;98347.97;;;34.78;22.84
54816;BME280;40715;55.752;37.884;2023-07-31T12:06:01;98337.00;;;34.78;23.05
54816;BME280;40715;55.752;37.884;2023-07-31T12:08:29;98346.06;;;34.78;23.07
54816;BME280;40715;55.752;37.884;2023-07-31T12:11:08;98336.59;;;34.81;23.22
54816;BME280;40715;55.752;37.884;2023-07-31T12:13:38;98339.94;;;34.83;23.22
54816;BME280;40715;55.752;37.884;2023-07-31T12:16:05;98342.44;;;34.84;23.18
54816;BME280;40715;55.752;37.884;2023-07-31T12:18:35;98332.19;;;34.80;23.37
54816;BME280;40715;55.752;37.884;2023-07-31T12:21:05;98334.91;;;34.80;23.33
54816;BME280;40715;55.752;37.884;2023-07-31T12:23:34;98342.06;;;34.81;23.43
54816;BME280;40715;55.752;37.884;2023-07-31T12:28:43;98346.25;;;34.83;23.25
54816;BME280;40715;55.752;37.884;2023-07-31T12:31:15;98344.81;;;34.81;23.25
54816;BME280;40715;55.752;37.884;2023-07-31T12:33:44;98346.06;;;34.78;23.46
54816;BME280;40715;55.752;37.884;2023-07-31T12:36:16;98349.63;;;34.79;23.20
54816;BME280;40715;55.752;37.884;2023-07-31T12:38:45;98347.09;;;34.77;23.23
54816;BME280;40715;55.752;37.884;2023-07-31T12:41:13;98352.16;;;34.80;22.92
54816;BME280;40715;55.752;37.884;2023-07-31T12:43:41;98347.97;;;34.78;23.17
54816;BME280;40715;55.752;37.884;2023-07-31T12:46:09;98346.88;;;34.79;23.04
54816;BME280;40715;55.752;37.884;2023-07-31T12:48:39;98348.59;;;34.73;22.90
54816;BME280;40715;55.752;37.884;2023-07-31T12:51:07;98351.75;;;34.77;23.14
54816;BME280;40715;55.752;37.884;2023-07-31T12:53:34;98355.53;;;34.75;22.93
54816;BME280;40715;55.752;37.884;2023-07-31T12:56:02;98355.53;;;34.75;22.95
54816;BME280;40715;55.752;37.884;2023-07-31T12:58:29;98354.72;;;34.75;23.09
54816;BME280;40715;55.752;37.884;2023-07-31T13:00:56;98351.75;;;34.77;23.13
54816;BME280;40715;55.752;37.884;2023-07-31T13:03:23;98356.59;;;34.74;23.01
54816;BME280;40715;55.752;37.884;2023-07-31T13:05:50;98357.44;;;34.75;23.12
54816;BME280;40715;55.752;37.884;2023-07-31T13:08:19;98356.81;;;34.73;23.21
54816;BME280;40715;55.752;37.884;2023-07-31T13:10:46;98363.75;;;34.75;23.34